MSC Bari — A8YD3 — position and weather

sailwx.info

Track history (hours):
 
Tides and Currents Weather Stations Pressure Air Temp Water Temp Dewpoint Dewpoint Depression Visibility Wind Speed Wind Dir Waves Ship Positions

MSC Bari

Last reported at 2017-Jun-29 06:03 UTC. Time now 2017-Jun-29 08:54 UTC.
Position N 35°49' E 014°33'.

Length 366 m; draft 14.4 m.

Type: Ship (hazmat cat A). MMSI: 636092188.

Date/timePositionNaut miles runAvg speedWind from/ knotsBaromVisibWave heightAir tempDewpointWater temp
2017-Jun-29 06:03N 35°49' E 014°33'0 0.0
2017-Jun-28 23:36N 35°49' E 014°33'0 0.0
2017-Jun-28 23:27N 35°49' E 014°33'0 0.0
2017-Jun-28 23:00N 35°49' E 014°33'0 0.0
2017-Jun-28 22:30N 35°49' E 014°33'0 0.0
2017-Jun-28 21:54N 35°49' E 014°33'0 0.0
2017-Jun-28 21:18N 35°49' E 014°33'0 0.0
2017-Jun-28 21:00N 35°49' E 014°33'0 0.0
2017-Jun-28 20:24N 35°49' E 014°33'0 0.0
2017-Jun-28 20:00N 35°49' E 014°33'0 0.0
2017-Jun-28 19:30N 35°49' E 014°33'0 0.0
2017-Jun-28 18:57N 35°49' E 014°33'0 0.0
2017-Jun-28 18:24N 35°49' E 014°33'0 0.0
2017-Jun-28 18:00N 35°49' E 014°33'0 0.0
2017-Jun-28 16:15N 35°49' E 014°33'0 0.0
2017-Jun-28 15:45N 35°49' E 014°33'0 0.0
2017-Jun-28 15:30N 35°49' E 014°33'0 0.0
2017-Jun-28 15:00N 35°49' E 014°33'0 0.0
2017-Jun-28 13:58N 35°49' E 014°33'0 0.4
2017-Jun-28 13:30N 35°49' E 014°33'3 5.3
2017-Jun-28 13:00N 35°48' E 014°35'3 5.9
2017-Jun-28 12:30N 35°46' E 014°38'611.0
2017-Jun-28 12:00N 35°45' E 014°45'918.3
2017-Jun-28 11:30N 35°42' E 014°55'1020.3
2017-Jun-28 11:00N 35°40' E 015°08'1020.1
2017-Jun-28 10:30N 35°37' E 015°20'1019.8
2017-Jun-28 10:00N 35°35' E 015°32'1019.7
2017-Jun-28 09:30N 35°32' E 015°43'1019.9
2017-Jun-28 09:01N 35°30' E 015°55'1020.1
2017-Jun-28 08:30N 35°27' E 016°07'1020.3
2017-Jun-28 08:00N 35°24' E 016°19'1120.5
2017-Jun-28 07:30N 35°21' E 016°31'1020.3
2017-Jun-28 07:00N 35°19' E 016°43'1020.1
2017-Jun-28 06:30N 35°16' E 016°55'1019.9
2017-Jun-28 06:00N 35°13' E 017°07'1019.7
2017-Jun-28 05:30N 35°11' E 017°19'1019.6
2017-Jun-28 04:59N 35°08' E 017°30'919.5
2017-Jun-28 04:30N 35°06' E 017°41'1019.7
2017-Jun-28 04:00N 35°03' E 017°53'1020.1
2017-Jun-28 03:30N 35°00' E 018°05'1020.3
2017-Jun-28 03:00N 34°57' E 018°17'14420.4
2017-Jun-27 19:57N 34°19' E 021°05'920.4
2017-Jun-27 19:30N 34°16' E 021°16'2620.5
2017-Jun-27 18:13N 34°10' E 021°46'520.6
2017-Jun-27 18:00N 34°08' E 021°52'7020.3
2017-Jun-27 14:33N 33°49' E 023°13'120.2
2017-Jun-27 14:30N 33°49' E 023°14'41820.4
2017-Jun-26 18:03N 31°57' E 031°13'120.1
2017-Jun-26 18:00N 31°57' E 031°15'1819.9
2017-Jun-26 17:05N 31°52' E 031°35'219.8
2017-Jun-26 17:00N 31°51' E 031°37'1619.8
2017-Jun-26 16:12N 31°47' E 031°55'418.7
2017-Jun-26 16:00N 31°45' E 031°59'917.8
2017-Jun-26 15:30N 31°39' E 032°06'917.6
2017-Jun-26 15:00N 31°33' E 032°14'917.4
2017-Jun-26 14:30N 31°29' E 032°23'1413.5
2017-Jun-26 13:30N 31°16' E 032°21'4 8.2
2017-Jun-26 13:00N 31°12' E 032°20'4 8.0
2017-Jun-26 12:30N 31°08' E 032°19'5 9.1
2017-Jun-26 12:00N 31°03' E 032°19'4 9.0
2017-Jun-26 11:30N 30°59' E 032°19'5 9.0
2017-Jun-26 11:00N 30°54' E 032°19'5 9.1
2017-Jun-26 10:29N 30°50' E 032°19'  
Track history (hours):
 
Tides and Currents Weather Stations Pressure Air Temp Water Temp Dewpoint Dewpoint Depression Visibility Wind Speed Wind Dir Waves Ship Positions

MSC Bari

Last reported at 2017-Jun-29 06:03 UTC. Time now 2017-Jun-29 08:54 UTC.
Position N 35°49' E 014°33'.

Length 366 m; draft 14.4 m.

Type: Ship (hazmat cat A). MMSI: 636092188.

Date/timePositionNaut miles runAvg speedWind from/ knotsBaromVisibWave heightAir tempDewpointWater temp
2017-Jun-29 06:03N 35°49' E 014°33'0 0.0
2017-Jun-28 23:36N 35°49' E 014°33'0 0.0
2017-Jun-28 23:27N 35°49' E 014°33'0 0.0
2017-Jun-28 23:00N 35°49' E 014°33'0 0.0
2017-Jun-28 22:30N 35°49' E 014°33'0 0.0
2017-Jun-28 21:54N 35°49' E 014°33'0 0.0
2017-Jun-28 21:18N 35°49' E 014°33'0 0.0
2017-Jun-28 21:00N 35°49' E 014°33'0 0.0
2017-Jun-28 20:24N 35°49' E 014°33'0 0.0
2017-Jun-28 20:00N 35°49' E 014°33'0 0.0
2017-Jun-28 19:30N 35°49' E 014°33'0 0.0
2017-Jun-28 18:57N 35°49' E 014°33'0 0.0
2017-Jun-28 18:24N 35°49' E 014°33'0 0.0
2017-Jun-28 18:00N 35°49' E 014°33'0 0.0
2017-Jun-28 16:15N 35°49' E 014°33'0 0.0
2017-Jun-28 15:45N 35°49' E 014°33'0 0.0
2017-Jun-28 15:30N 35°49' E 014°33'0 0.0
2017-Jun-28 15:00N 35°49' E 014°33'0 0.0
2017-Jun-28 13:58N 35°49' E 014°33'0 0.4
2017-Jun-28 13:30N 35°49' E 014°33'3 5.3
2017-Jun-28 13:00N 35°48' E 014°35'3 5.9
2017-Jun-28 12:30N 35°46' E 014°38'611.0
2017-Jun-28 12:00N 35°45' E 014°45'918.3
2017-Jun-28 11:30N 35°42' E 014°55'1020.3
2017-Jun-28 11:00N 35°40' E 015°08'1020.1
2017-Jun-28 10:30N 35°37' E 015°20'1019.8
2017-Jun-28 10:00N 35°35' E 015°32'1019.7
2017-Jun-28 09:30N 35°32' E 015°43'1019.9
2017-Jun-28 09:01N 35°30' E 015°55'1020.1
2017-Jun-28 08:30N 35°27' E 016°07'1020.3
2017-Jun-28 08:00N 35°24' E 016°19'1120.5
2017-Jun-28 07:30N 35°21' E 016°31'1020.3
2017-Jun-28 07:00N 35°19' E 016°43'1020.1
2017-Jun-28 06:30N 35°16' E 016°55'1019.9
2017-Jun-28 06:00N 35°13' E 017°07'1019.7
2017-Jun-28 05:30N 35°11' E 017°19'1019.6
2017-Jun-28 04:59N 35°08' E 017°30'919.5
2017-Jun-28 04:30N 35°06' E 017°41'1019.7
2017-Jun-28 04:00N 35°03' E 017°53'1020.1
2017-Jun-28 03:30N 35°00' E 018°05'1020.3
2017-Jun-28 03:00N 34°57' E 018°17'14420.4
2017-Jun-27 19:57N 34°19' E 021°05'920.4
2017-Jun-27 19:30N 34°16' E 021°16'2620.5
2017-Jun-27 18:13N 34°10' E 021°46'520.6
2017-Jun-27 18:00N 34°08' E 021°52'7020.3
2017-Jun-27 14:33N 33°49' E 023°13'120.2
2017-Jun-27 14:30N 33°49' E 023°14'41820.4
2017-Jun-26 18:03N 31°57' E 031°13'120.1
2017-Jun-26 18:00N 31°57' E 031°15'1819.9
2017-Jun-26 17:05N 31°52' E 031°35'219.8
2017-Jun-26 17:00N 31°51' E 031°37'1619.8
2017-Jun-26 16:12N 31°47' E 031°55'418.7
2017-Jun-26 16:00N 31°45' E 031°59'917.8
2017-Jun-26 15:30N 31°39' E 032°06'917.6
2017-Jun-26 15:00N 31°33' E 032°14'917.4
2017-Jun-26 14:30N 31°29' E 032°23'1413.5
2017-Jun-26 13:30N 31°16' E 032°21'4 8.2
2017-Jun-26 13:00N 31°12' E 032°20'4 8.0
2017-Jun-26 12:30N 31°08' E 032°19'5 9.1
2017-Jun-26 12:00N 31°03' E 032°19'4 9.0
2017-Jun-26 11:30N 30°59' E 032°19'5 9.0
2017-Jun-26 11:00N 30°54' E 032°19'5 9.1
2017-Jun-26 10:29N 30°50' E 032°19'  

Dump ship's entire track history